sensor_id;sensor_type;location;lat;lon;timestamp;pressure;altitude;pressure_sealevel;temperature;humidity
20793;BME280;10556;-33.662;151.094;2022-11-20T00:02:36;97552.38;;;25.32;49.35
20793;BME280;10556;-33.662;151.094;2022-11-20T00:07:38;97562.06;;;25.43;50.64
20793;BME280;10556;-33.662;151.094;2022-11-20T00:12:43;97586.50;;;25.55;50.66
20793;BME280;10556;-33.662;151.094;2022-11-20T00:17:45;97580.78;;;25.65;48.92
20793;BME280;10556;-33.662;151.094;2022-11-20T00:22:48;97586.97;;;25.70;48.70
20793;BME280;10556;-33.662;151.094;2022-11-20T00:27:53;97608.13;;;25.80;48.87
20793;BME280;10556;-33.662;151.094;2022-11-20T00:32:57;97587.69;;;25.95;48.00
20793;BME280;10556;-33.662;151.094;2022-11-20T00:38:00;97613.72;;;26.02;45.42
20793;BME280;10556;-33.662;151.094;2022-11-20T00:43:04;97617.56;;;25.99;43.35
20793;BME280;10556;-33.662;151.094;2022-11-20T00:48:07;97603.19;;;25.90;42.06
20793;BME280;10556;-33.662;151.094;2022-11-20T00:53:09;97619.59;;;25.97;42.31
20793;BME280;10556;-33.662;151.094;2022-11-20T00:58:14;97610.47;;;26.07;42.11
20793;BME280;10556;-33.662;151.094;2022-11-20T01:03:16;97597.56;;;26.12;40.70
20793;BME280;10556;-33.662;151.094;2022-11-20T01:08:19;97600.31;;;26.17;41.56
20793;BME280;10556;-33.662;151.094;2022-11-20T01:13:23;97601.63;;;26.08;39.12
20793;BME280;10556;-33.662;151.094;2022-11-20T01:18:26;97602.34;;;25.96;39.09
20793;BME280;10556;-33.662;151.094;2022-11-20T01:23:31;97592.34;;;25.93;39.44
20793;BME280;10556;-33.662;151.094;2022-11-20T01:28:36;97572.75;;;26.02;39.84
20793;BME280;10556;-33.662;151.094;2022-11-20T01:33:39;97601.31;;;26.16;38.70
20793;BME280;10556;-33.662;151.094;2022-11-20T01:38:42;97593.50;;;26.34;36.99
20793;BME280;10556;-33.662;151.094;2022-11-20T01:43:46;97601.06;;;26.42;36.90
20793;BME280;10556;-33.662;151.094;2022-11-20T01:48:52;97595.72;;;26.48;37.84
20793;BME280;10556;-33.662;151.094;2022-11-20T01:53:59;97587.69;;;26.50;36.54
20793;BME280;10556;-33.662;151.094;2022-11-20T01:59:05;97587.00;;;26.55;37.83
20793;BME280;10556;-33.662;151.094;2022-11-20T02:04:09;97593.19;;;26.72;35.64
20793;BME280;10556;-33.662;151.094;2022-11-20T02:09:12;97583.25;;;26.80;33.11
20793;BME280;10556;-33.662;151.094;2022-11-20T02:14:18;97600.06;;;26.84;33.16
20793;BME280;10556;-33.662;151.094;2022-11-20T02:19:24;97628.75;;;26.91;33.57
20793;BME280;10556;-33.662;151.094;2022-11-20T02:24:30;97602.31;;;26.99;33.34
20793;BME280;10556;-33.662;151.094;2022-11-20T02:29:38;97609.25;;;27.05;32.56
20793;BME280;10556;-33.662;151.094;2022-11-20T02:34:42;97631.47;;;27.14;35.10
20793;BME280;10556;-33.662;151.094;2022-11-20T02:39:47;97617.72;;;27.19;35.15
20793;BME280;10556;-33.662;151.094;2022-11-20T02:44:50;97615.22;;;27.24;35.41
20793;BME280;10556;-33.662;151.094;2022-11-20T02:49:53;97626.13;;;27.21;35.55
20793;BME280;10556;-33.662;151.094;2022-11-20T02:54:57;97614.41;;;27.23;37.15
20793;BME280;10556;-33.662;151.094;2022-11-20T03:00:00;97642.75;;;27.38;38.55
20793;BME280;10556;-33.662;151.094;2022-11-20T03:05:03;97620.25;;;27.49;38.09
20793;BME280;10556;-33.662;151.094;2022-11-20T03:10:08;97658.50;;;27.50;36.97
20793;BME280;10556;-33.662;151.094;2022-11-20T03:15:11;97669.06;;;27.43;36.92
20793;BME280;10556;-33.662;151.094;2022-11-20T03:20:13;97676.09;;;27.43;37.55
20793;BME280;10556;-33.662;151.094;2022-11-20T03:25:18;97685.09;;;27.47;37.07
20793;BME280;10556;-33.662;151.094;2022-11-20T03:30:20;97677.56;;;27.39;36.51
20793;BME280;10556;-33.662;151.094;2022-11-20T03:35:23;97673.84;;;27.05;35.80
20793;BME280;10556;-33.662;151.094;2022-11-20T03:40:27;97698.75;;;27.07;37.08
20793;BME280;10556;-33.662;151.094;2022-11-20T03:45:30;97698.94;;;27.06;37.92
20793;BME280;10556;-33.662;151.094;2022-11-20T03:50:33;97697.06;;;27.13;38.09
20793;BME280;10556;-33.662;151.094;2022-11-20T03:55:37;97698.78;;;27.19;39.00
20793;BME280;10556;-33.662;151.094;2022-11-20T04:00:40;97697.31;;;27.23;38.82
20793;BME280;10556;-33.662;151.094;2022-11-20T04:05:42;97708.31;;;27.13;38.97
20793;BME280;10556;-33.662;151.094;2022-11-20T04:10:46;97689.28;;;27.06;36.96
20793;BME280;10556;-33.662;151.094;2022-11-20T04:15:49;97706.53;;;26.96;35.67
20793;BME280;10556;-33.662;151.094;2022-11-20T04:20:51;97690.97;;;27.01;34.24
20793;BME280;10556;-33.662;151.094;2022-11-20T04:26:02;97717.72;;;26.84;34.27
20793;BME280;10556;-33.662;151.094;2022-11-20T04:31:07;97702.09;;;26.78;34.28
20793;BME280;10556;-33.662;151.094;2022-11-20T04:36:11;97704.44;;;26.68;34.92
20793;BME280;10556;-33.662;151.094;2022-11-20T04:41:18;97693.31;;;26.72;34.56
20793;BME280;10556;-33.662;151.094;2022-11-20T04:46:21;97688.34;;;26.71;34.07
20793;BME280;10556;-33.662;151.094;2022-11-20T04:51:23;97689.19;;;26.65;33.14
20793;BME280;10556;-33.662;151.094;2022-11-20T04:56:28;97682.38;;;26.64;32.24
20793;BME280;10556;-33.662;151.094;2022-11-20T05:01:31;97682.97;;;26.66;33.02
20793;BME280;10556;-33.662;151.094;2022-11-20T05:06:33;97687.75;;;26.69;32.23
20793;BME280;10556;-33.662;151.094;2022-11-20T05:11:38;97669.50;;;26.62;31.51
20793;BME280;10556;-33.662;151.094;2022-11-20T05:16:40;97681.22;;;26.60;31.29
20793;BME280;10556;-33.662;151.094;2022-11-20T05:21:43;97690.06;;;26.59;31.46
20793;BME280;10556;-33.662;151.094;2022-11-20T05:26:47;97675.19;;;26.59;32.03
20793;BME280;10556;-33.662;151.094;2022-11-20T05:31:50;97679.31;;;26.48;32.17
20793;BME280;10556;-33.662;151.094;2022-11-20T05:36:53;97678.88;;;26.33;31.92
20793;BME280;10556;-33.662;151.094;2022-11-20T05:41:57;97691.69;;;26.23;31.46
20793;BME280;10556;-33.662;151.094;2022-11-20T05:47:00;97705.22;;;26.14;31.35
20793;BME280;10556;-33.662;151.094;2022-11-20T05:52:02;97732.41;;;25.99;31.67
20793;BME280;10556;-33.662;151.094;2022-11-20T05:57:07;97729.03;;;25.99;32.30
20793;BME280;10556;-33.662;151.094;2022-11-20T06:02:09;97744.31;;;25.95;31.76
20793;BME280;10556;-33.662;151.094;2022-11-20T06:07:12;97737.91;;;25.91;32.38
20793;BME280;10556;-33.662;151.094;2022-11-20T06:12:16;97742.78;;;25.88;31.86
20793;BME280;10556;-33.662;151.094;2022-11-20T06:17:19;97735.44;;;25.78;32.30
20793;BME280;10556;-33.662;151.094;2022-11-20T06:22:21;97745.72;;;25.67;32.08
20793;BME280;10556;-33.662;151.094;2022-11-20T06:27:26;97727.91;;;25.64;32.96
20793;BME280;10556;-33.662;151.094;2022-11-20T06:32:29;97736.81;;;25.49;32.53
20793;BME280;10556;-33.662;151.094;2022-11-20T06:37:31;97734.47;;;25.41;32.42
20793;BME280;10556;-33.662;151.094;2022-11-20T06:42:36;97727.72;;;25.27;32.18
20793;BME280;10556;-33.662;151.094;2022-11-20T06:47:38;97741.78;;;25.19;31.79
20793;BME280;10556;-33.662;151.094;2022-11-20T06:52:41;97726.97;;;25.13;31.66
20793;BME280;10556;-33.662;151.094;2022-11-20T06:57:45;97761.13;;;25.05;31.59
20793;BME280;10556;-33.662;151.094;2022-11-20T07:02:48;97774.97;;;24.99;31.41
20793;BME280;10556;-33.662;151.094;2022-11-20T07:07:50;97775.41;;;24.90;32.07
20793;BME280;10556;-33.662;151.094;2022-11-20T07:12:55;97784.47;;;24.74;30.85
20793;BME280;10556;-33.662;151.094;2022-11-20T07:18:00;97790.72;;;24.60;32.06
20793;BME280;10556;-33.662;151.094;2022-11-20T07:23:02;97796.09;;;24.52;33.03
20793;BME280;10556;-33.662;151.094;2022-11-20T07:28:07;97792.34;;;24.35;33.39
20793;BME280;10556;-33.662;151.094;2022-11-20T07:33:09;97825.19;;;24.22;32.90
20793;BME280;10556;-33.662;151.094;2022-11-20T07:38:12;97814.56;;;24.11;32.56
20793;BME280;10556;-33.662;151.094;2022-11-20T07:43:16;97833.34;;;24.00;33.03
20793;BME280;10556;-33.662;151.094;2022-11-20T07:48:19;97826.34;;;23.87;32.72
20793;BME280;10556;-33.662;151.094;2022-11-20T07:53:22;97839.13;;;23.75;32.87
20793;BME280;10556;-33.662;151.094;2022-11-20T07:58:27;97850.13;;;23.64;32.78
20793;BME280;10556;-33.662;151.094;2022-11-20T08:03:30;97849.25;;;23.51;32.95
20793;BME280;10556;-33.662;151.094;2022-11-20T08:08:33;97846.38;;;23.39;32.69
20793;BME280;10556;-33.662;151.094;2022-11-20T08:13:37;97877.72;;;23.24;34.07
20793;BME280;10556;-33.662;151.094;2022-11-20T08:18:40;97874.25;;;23.11;33.26
20793;BME280;10556;-33.662;151.094;2022-11-20T08:23:42;97893.97;;;22.98;33.13
20793;BME280;10556;-33.662;151.094;2022-11-20T08:28:47;97908.09;;;22.89;33.82
20793;BME280;10556;-33.662;151.094;2022-11-20T08:33:50;97920.59;;;22.79;34.15
20793;BME280;10556;-33.662;151.094;2022-11-20T08:38:54;97935.69;;;22.69;34.37
20793;BME280;10556;-33.662;151.094;2022-11-20T08:43:59;97953.94;;;22.54;34.34
20793;BME280;10556;-33.662;151.094;2022-11-20T08:49:02;97963.22;;;22.42;34.99
20793;BME280;10556;-33.662;151.094;2022-11-20T08:54:06;97965.06;;;22.27;36.28
20793;BME280;10556;-33.662;151.094;2022-11-20T08:59:10;97982.13;;;22.15;36.62
20793;BME280;10556;-33.662;151.094;2022-11-20T09:04:13;97981.78;;;22.03;36.27
20793;BME280;10556;-33.662;151.094;2022-11-20T09:09:15;98002.66;;;21.95;37.28
20793;BME280;10556;-33.662;151.094;2022-11-20T09:14:20;98014.44;;;21.83;37.32
20793;BME280;10556;-33.662;151.094;2022-11-20T09:19:23;98024.63;;;21.70;38.35
20793;BME280;10556;-33.662;151.094;2022-11-20T09:24:26;98029.66;;;21.57;38.79
20793;BME280;10556;-33.662;151.094;2022-11-20T09:29:30;98036.06;;;21.46;39.11
20793;BME280;10556;-33.662;151.094;2022-11-20T09:34:33;98046.69;;;21.37;39.37
20793;BME280;10556;-33.662;151.094;2022-11-20T09:39:36;98053.38;;;21.31;39.39
20793;BME280;10556;-33.662;151.094;2022-11-20T09:44:51;98065.44;;;21.24;39.52
20793;BME280;10556;-33.662;151.094;2022-11-20T09:50:07;98070.69;;;21.16;41.16
20793;BME280;10556;-33.662;151.094;2022-11-20T09:55:18;98069.09;;;21.07;40.81
20793;BME280;10556;-33.662;151.094;2022-11-20T10:00:23;98075.34;;;20.98;40.96
20793;BME280;10556;-33.662;151.094;2022-11-20T10:05:29;98071.03;;;20.90;40.67
20793;BME280;10556;-33.662;151.094;2022-11-20T10:10:36;98075.56;;;20.88;40.85
20793;BME280;10556;-33.662;151.094;2022-11-20T10:15:52;98084.50;;;20.85;42.07
20793;BME280;10556;-33.662;151.094;2022-11-20T10:21:01;98078.84;;;20.82;41.89
20793;BME280;10556;-33.662;151.094;2022-11-20T10:26:17;98092.59;;;20.82;42.39
20793;BME280;10556;-33.662;151.094;2022-11-20T10:31:28;98085.03;;;20.81;41.82
20793;BME280;10556;-33.662;151.094;2022-11-20T10:36:35;98090.81;;;20.83;42.28
20793;BME280;10556;-33.662;151.094;2022-11-20T10:41:42;98099.44;;;20.75;43.34
20793;BME280;10556;-33.662;151.094;2022-11-20T10:46:47;98100.59;;;20.73;43.42
20793;BME280;10556;-33.662;151.094;2022-11-20T10:51:57;98108.72;;;20.70;43.22
20793;BME280;10556;-33.662;151.094;2022-11-20T10:57:05;98119.72;;;20.64;43.97
20793;BME280;10556;-33.662;151.094;2022-11-20T11:02:19;98138.25;;;20.53;44.41
20793;BME280;10556;-33.662;151.094;2022-11-20T11:07:23;98134.72;;;20.45;44.28
20793;BME280;10556;-33.662;151.094;2022-11-20T11:12:29;98136.03;;;20.41;45.27
20793;BME280;10556;-33.662;151.094;2022-11-20T11:17:34;98133.94;;;20.37;45.16
20793;BME280;10556;-33.662;151.094;2022-11-20T11:22:45;98134.75;;;20.29;45.32
20793;BME280;10556;-33.662;151.094;2022-11-20T11:27:49;98144.97;;;20.23;45.66
20793;BME280;10556;-33.662;151.094;2022-11-20T11:33:03;98133.34;;;20.11;46.65
20793;BME280;10556;-33.662;151.094;2022-11-20T11:38:10;98141.59;;;20.06;46.28
20793;BME280;10556;-33.662;151.094;2022-11-20T11:43:19;98144.53;;;20.03;46.26
20793;BME280;10556;-33.662;151.094;2022-11-20T11:48:25;98143.75;;;19.94;47.38
20793;BME280;10556;-33.662;151.094;2022-11-20T11:53:29;98155.56;;;19.89;47.62
20793;BME280;10556;-33.662;151.094;2022-11-20T11:58:43;98147.81;;;19.81;47.47
20793;BME280;10556;-33.662;151.094;2022-11-20T12:03:55;98151.38;;;19.72;48.69
20793;BME280;10556;-33.662;151.094;2022-11-20T12:09:02;98144.59;;;19.63;48.53
20793;BME280;10556;-33.662;151.094;2022-11-20T12:14:13;98150.75;;;19.53;49.50
20793;BME280;10556;-33.662;151.094;2022-11-20T12:19:19;98149.78;;;19.46;49.34
20793;BME280;10556;-33.662;151.094;2022-11-20T12:24:46;98142.66;;;19.40;49.55
20793;BME280;10556;-33.662;151.094;2022-11-20T12:29:56;98136.00;;;19.38;49.09
20793;BME280;10556;-33.662;151.094;2022-11-20T12:35:07;98139.41;;;19.38;48.91
20793;BME280;10556;-33.662;151.094;2022-11-20T12:40:27;98139.91;;;19.34;49.65
20793;BME280;10556;-33.662;151.094;2022-11-20T12:45:55;98137.00;;;19.21;50.21
20793;BME280;10556;-33.662;151.094;2022-11-20T12:51:17;98129.41;;;19.11;50.98
20793;BME280;10556;-33.662;151.094;2022-11-20T12:56:28;98127.63;;;19.03;50.23
20793;BME280;10556;-33.662;151.094;2022-11-20T13:01:37;98119.56;;;18.98;50.15
20793;BME280;10556;-33.662;151.094;2022-11-20T13:06:44;98118.88;;;18.96;49.74
20793;BME280;10556;-33.662;151.094;2022-11-20T13:11:50;98100.63;;;18.90;49.96
20793;BME280;10556;-33.662;151.094;2022-11-20T13:17:04;98106.13;;;18.87;50.04
20793;BME280;10556;-33.662;151.094;2022-11-20T13:22:10;98102.41;;;18.81;48.70
20793;BME280;10556;-33.662;151.094;2022-11-20T13:27:21;98104.03;;;18.82;48.87
20793;BME280;10556;-33.662;151.094;2022-11-20T13:32:24;98092.41;;;18.86;49.03
20793;BME280;10556;-33.662;151.094;2022-11-20T13:37:31;98077.72;;;18.79;48.62
20793;BME280;10556;-33.662;151.094;2022-11-20T13:42:37;98065.63;;;18.79;48.67
20793;BME280;10556;-33.662;151.094;2022-11-20T13:47:48;98060.47;;;18.79;48.02
20793;BME280;10556;-33.662;151.094;2022-11-20T13:52:58;98056.44;;;18.77;48.90
20793;BME280;10556;-33.662;151.094;2022-11-20T13:58:16;98043.84;;;18.73;48.38
20793;BME280;10556;-33.662;151.094;2022-11-20T14:03:30;98039.31;;;18.76;48.54
20793;BME280;10556;-33.662;151.094;2022-11-20T14:08:38;98027.72;;;18.80;47.59
20793;BME280;10556;-33.662;151.094;2022-11-20T14:13:53;98035.81;;;18.85;47.94
20793;BME280;10556;-33.662;151.094;2022-11-20T14:18:56;98033.84;;;18.87;47.77
20793;BME280;10556;-33.662;151.094;2022-11-20T14:24:11;98036.28;;;18.88;47.97
20793;BME280;10556;-33.662;151.094;2022-11-20T14:29:15;98036.75;;;18.92;47.36
20793;BME280;10556;-33.662;151.094;2022-11-20T14:34:20;98036.44;;;18.95;47.12
20793;BME280;10556;-33.662;151.094;2022-11-20T14:39:30;98040.13;;;19.00;46.82
20793;BME280;10556;-33.662;151.094;2022-11-20T14:44:34;98045.63;;;19.05;46.01
20793;BME280;10556;-33.662;151.094;2022-11-20T14:49:37;98036.75;;;19.08;45.56
20793;BME280;10556;-33.662;151.094;2022-11-20T14:54:47;98039.81;;;19.11;45.60
20793;BME280;10556;-33.662;151.094;2022-11-20T14:59:50;98040.78;;;19.10;46.08
20793;BME280;10556;-33.662;151.094;2022-11-20T15:04:58;98040.16;;;19.08;45.54
20793;BME280;10556;-33.662;151.094;2022-11-20T15:10:05;98041.91;;;19.00;45.45
20793;BME280;10556;-33.662;151.094;2022-11-20T15:15:12;98036.28;;;18.96;45.84
20793;BME280;10556;-33.662;151.094;2022-11-20T15:20:17;98023.50;;;18.95;46.14
20793;BME280;10556;-33.662;151.094;2022-11-20T15:25:22;98023.50;;;18.95;46.21
20793;BME280;10556;-33.662;151.094;2022-11-20T15:30:25;98025.16;;;18.88;45.92
20793;BME280;10556;-33.662;151.094;2022-11-20T15:35:27;98016.91;;;18.92;46.56
20793;BME280;10556;-33.662;151.094;2022-11-20T15:40:32;98002.22;;;18.93;46.52
20793;BME280;10556;-33.662;151.094;2022-11-20T15:45:39;98001.56;;;18.91;46.77
20793;BME280;10556;-33.662;151.094;2022-11-20T15:50:51;97999.81;;;18.91;46.82
20793;BME280;10556;-33.662;151.094;2022-11-20T15:55:59;97994.97;;;18.88;46.55
20793;BME280;10556;-33.662;151.094;2022-11-20T16:01:01;97996.91;;;18.86;47.08
20793;BME280;10556;-33.662;151.094;2022-11-20T16:06:04;97987.06;;;18.82;47.17
20793;BME280;10556;-33.662;151.094;2022-11-20T16:11:12;97984.50;;;18.73;47.40
20793;BME280;10556;-33.662;151.094;2022-11-20T16:16:20;97979.16;;;18.67;47.34
20793;BME280;10556;-33.662;151.094;2022-11-20T16:21:23;97988.66;;;18.66;47.54
20793;BME280;10556;-33.662;151.094;2022-11-20T16:26:28;97978.69;;;18.55;48.24
20793;BME280;10556;-33.662;151.094;2022-11-20T16:31:31;97985.06;;;18.51;48.25
20793;BME280;10556;-33.662;151.094;2022-11-20T16:36:34;97994.28;;;18.46;48.46
20793;BME280;10556;-33.662;151.094;2022-11-20T16:41:39;97986.03;;;18.42;48.80
20793;BME280;10556;-33.662;151.094;2022-11-20T16:46:41;97975.88;;;18.33;49.36
20793;BME280;10556;-33.662;151.094;2022-11-20T16:51:49;97983.59;;;18.24;49.93
20793;BME280;10556;-33.662;151.094;2022-11-20T16:56:53;97978.75;;;18.21;50.74
20793;BME280;10556;-33.662;151.094;2022-11-20T17:01:56;97976.19;;;18.21;50.29
20793;BME280;10556;-33.662;151.094;2022-11-20T17:06:59;97976.34;;;18.20;50.94
20793;BME280;10556;-33.662;151.094;2022-11-20T17:12:03;97975.38;;;18.21;50.98
20793;BME280;10556;-33.662;151.094;2022-11-20T17:17:06;97969.41;;;18.20;51.34
20793;BME280;10556;-33.662;151.094;2022-11-20T17:22:08;97966.97;;;18.19;51.58
20793;BME280;10556;-33.662;151.094;2022-11-20T17:27:13;97979.25;;;18.17;51.58
20793;BME280;10556;-33.662;151.094;2022-11-20T17:32:15;97982.63;;;18.17;52.02
20793;BME280;10556;-33.662;151.094;2022-11-20T17:37:18;97994.38;;;18.20;51.99
20793;BME280;10556;-33.662;151.094;2022-11-20T17:42:22;97996.81;;;18.21;51.57
20793;BME280;10556;-33.662;151.094;2022-11-20T17:47:25;97986.16;;;18.16;52.05
20793;BME280;10556;-33.662;151.094;2022-11-20T17:52:28;97977.94;;;18.13;52.83
20793;BME280;10556;-33.662;151.094;2022-11-20T17:57:32;97972.28;;;18.09;52.66
20793;BME280;10556;-33.662;151.094;2022-11-20T18:02:35;97970.66;;;18.08;52.50
20793;BME280;10556;-33.662;151.094;2022-11-20T18:07:37;97977.41;;;18.01;53.02
20793;BME280;10556;-33.662;151.094;2022-11-20T18:12:42;97988.19;;;17.97;53.44
20793;BME280;10556;-33.662;151.094;2022-11-20T18:17:44;97996.09;;;17.95;53.48
20793;BME280;10556;-33.662;151.094;2022-11-20T18:22:47;97994.31;;;17.96;53.36
20793;BME280;10556;-33.662;151.094;2022-11-20T18:27:51;97976.41;;;17.94;53.66
20793;BME280;10556;-33.662;151.094;2022-11-20T18:32:54;97967.38;;;17.90;53.16
20793;BME280;10556;-33.662;151.094;2022-11-20T18:37:57;97972.53;;;17.90;54.31
20793;BME280;10556;-33.662;151.094;2022-11-20T18:43:01;97972.88;;;17.87;53.20
20793;BME280;10556;-33.662;151.094;2022-11-20T18:48:04;97971.59;;;17.91;53.02
20793;BME280;10556;-33.662;151.094;2022-11-20T18:53:06;97985.59;;;17.89;53.61
20793;BME280;10556;-33.662;151.094;2022-11-20T18:58:11;97992.00;;;17.84;53.43
20793;BME280;10556;-33.662;151.094;2022-11-20T19:03:13;97974.97;;;17.83;53.49
20793;BME280;10556;-33.662;151.094;2022-11-20T19:08:16;97983.31;;;17.77;53.65
20793;BME280;10556;-33.662;151.094;2022-11-20T19:13:20;97988.31;;;17.79;53.91
20793;BME280;10556;-33.662;151.094;2022-11-20T19:18:23;97992.66;;;17.78;54.24
20793;BME280;10556;-33.662;151.094;2022-11-20T19:23:25;97999.38;;;17.71;54.22
20793;BME280;10556;-33.662;151.094;2022-11-20T19:28:30;97991.97;;;17.68;54.07
20793;BME280;10556;-33.662;151.094;2022-11-20T19:33:33;97987.63;;;17.69;54.45
20793;BME280;10556;-33.662;151.094;2022-11-20T19:38:36;97991.63;;;17.71;54.43
20793;BME280;10556;-33.662;151.094;2022-11-20T19:43:40;97984.56;;;17.73;54.18
20793;BME280;10556;-33.662;151.094;2022-11-20T19:48:43;97981.69;;;17.76;54.04
20793;BME280;10556;-33.662;151.094;2022-11-20T19:53:46;97977.81;;;17.80;54.45
20793;BME280;10556;-33.662;151.094;2022-11-20T19:58:52;97994.13;;;17.89;55.10
20793;BME280;10556;-33.662;151.094;2022-11-20T20:03:55;97992.88;;;18.01;53.85
20793;BME280;10556;-33.662;151.094;2022-11-20T20:08:59;98000.16;;;18.06;53.73
20793;BME280;10556;-33.662;151.094;2022-11-20T20:14:05;98003.69;;;18.05;53.50
20793;BME280;10556;-33.662;151.094;2022-11-20T20:19:12;98006.94;;;18.15;55.06
20793;BME280;10556;-33.662;151.094;2022-11-20T20:24:14;98000.03;;;18.23;54.46
20793;BME280;10556;-33.662;151.094;2022-11-20T20:29:19;98015.84;;;18.28;52.50
20793;BME280;10556;-33.662;151.094;2022-11-20T20:34:21;98009.56;;;18.39;53.45
20793;BME280;10556;-33.662;151.094;2022-11-20T20:39:24;97990.22;;;18.43;53.24
20793;BME280;10556;-33.662;151.094;2022-11-20T20:44:28;97995.13;;;18.54;54.07
20793;BME280;10556;-33.662;151.094;2022-11-20T20:49:32;97985.63;;;18.55;53.98
20793;BME280;10556;-33.662;151.094;2022-11-20T20:54:35;97991.59;;;18.63;53.01
20793;BME280;10556;-33.662;151.094;2022-11-20T20:59:39;97982.72;;;18.74;53.79
20793;BME280;10556;-33.662;151.094;2022-11-20T21:04:42;97987.22;;;18.88;53.08
20793;BME280;10556;-33.662;151.094;2022-11-20T21:09:44;97994.16;;;19.04;54.99
20793;BME280;10556;-33.662;151.094;2022-11-20T21:14:49;97998.66;;;19.18;52.98
20793;BME280;10556;-33.662;151.094;2022-11-20T21:19:51;97985.38;;;19.29;51.39
20793;BME280;10556;-33.662;151.094;2022-11-20T21:24:54;97991.34;;;19.38;51.64
20793;BME280;10556;-33.662;151.094;2022-11-20T21:29:58;98007.19;;;19.51;51.52
20793;BME280;10556;-33.662;151.094;2022-11-20T21:35:01;98008.13;;;19.58;51.19
20793;BME280;10556;-33.662;151.094;2022-11-20T21:40:04;98014.72;;;19.69;51.97
20793;BME280;10556;-33.662;151.094;2022-11-20T21:45:09;98008.19;;;19.81;51.75
20793;BME280;10556;-33.662;151.094;2022-11-20T21:50:11;98016.06;;;19.95;51.85
20793;BME280;10556;-33.662;151.094;2022-11-20T21:55:14;98007.41;;;20.11;51.54
20793;BME280;10556;-33.662;151.094;2022-11-20T22:00:19;98007.81;;;20.31;51.50
20793;BME280;10556;-33.662;151.094;2022-11-20T22:05:21;98000.94;;;20.46;49.57
20793;BME280;10556;-33.662;151.094;2022-11-20T22:10:24;98004.06;;;20.64;50.47
20793;BME280;10556;-33.662;151.094;2022-11-20T22:15:28;98006.16;;;20.83;48.68
20793;BME280;10556;-33.662;151.094;2022-11-20T22:20:31;98002.72;;;21.06;48.86
20793;BME280;10556;-33.662;151.094;2022-11-20T22:25:33;98013.09;;;21.28;47.40
20793;BME280;10556;-33.662;151.094;2022-11-20T22:30:38;98033.47;;;21.46;45.65
20793;BME280;10556;-33.662;151.094;2022-11-20T22:35:40;98004.16;;;21.60;45.24
20793;BME280;10556;-33.662;151.094;2022-11-20T22:40:43;98020.69;;;21.74;44.14
20793;BME280;10556;-33.662;151.094;2022-11-20T22:45:47;98007.19;;;21.79;43.24
20793;BME280;10556;-33.662;151.094;2022-11-20T22:50:50;98008.91;;;21.86;43.90
20793;BME280;10556;-33.662;151.094;2022-11-20T22:55:52;97997.09;;;21.98;42.21
20793;BME280;10556;-33.662;151.094;2022-11-20T23:01:08;97987.88;;;22.10;41.85
20793;BME280;10556;-33.662;151.094;2022-11-20T23:06:11;97978.53;;;22.16;41.00
20793;BME280;10556;-33.662;151.094;2022-11-20T23:11:15;98002.13;;;22.21;42.38
20793;BME280;10556;-33.662;151.094;2022-11-20T23:16:20;98001.66;;;22.32;41.27
20793;BME280;10556;-33.662;151.094;2022-11-20T23:21:26;97992.84;;;22.48;41.33
20793;BME280;10556;-33.662;151.094;2022-11-20T23:26:30;97993.75;;;22.61;40.96
20793;BME280;10556;-33.662;151.094;2022-11-20T23:31:35;97972.63;;;22.86;41.75
20793;BME280;10556;-33.662;151.094;2022-11-20T23:36:38;98005.75;;;23.05;40.95
20793;BME280;10556;-33.662;151.094;2022-11-20T23:41:40;97999.28;;;23.22;40.40
20793;BME280;10556;-33.662;151.094;2022-11-20T23:46:45;98012.56;;;23.34;38.67
20793;BME280;10556;-33.662;151.094;2022-11-20T23:51:47;98028.91;;;23.49;37.96
20793;BME280;10556;-33.662;151.094;2022-11-20T23:56:50;98038.75;;;23.60;38.00
